Time;durP1;ratioP1;P1;durP2;ratioP2;P2;SDS_P1;SDS_P2;PMS_P1;PMS_P2;Temp;Humidity;BMP_temperature;BMP_pressure;BME280_temperature;BME280_humidity;BME280_pressure;Samples;Min_cycle;Max_cycle;Signal;HPM_P1;HPM_P2
2023/11/01 00:00:35;;;;;;;4.50;3.40;;;;;;;12.92;74.18;98202.73;234344;215;150953;-63
2023/11/01 00:05:59;;;;;;;6.90;3.70;;;;;;;12.95;74.28;98201.44;234160;215;139257;-62
2023/11/01 00:11:04;;;;;;;6.70;3.70;;;;;;;12.99;74.03;98200.02;234249;216;138074;-62
2023/11/01 00:16:07;;;;;;;6.00;3.30;;;;;;;13.05;74.03;98203.15;234280;215;149795;-62
2023/11/01 00:21:11;;;;;;;7.50;3.90;;;;;;;13.03;73.90;98206.46;234401;215;138913;-62
2023/11/01 00:26:14;;;;;;;4.50;3.10;;;;;;;13.02;73.84;98218.84;234213;215;139788;-61
2023/11/01 00:31:19;;;;;;;;;;;;;;;13.00;73.81;98224.16;233904;215;150083;-61
2023/11/01 00:36:23;;;;;;;4.50;3.30;;;;;;;13.02;73.74;98225.98;234273;215;138689;-61
2023/11/01 00:41:26;;;;;;;4.80;3.30;;;;;;;13.01;73.68;98230.45;234319;215;138112;-62
2023/11/01 00:46:29;;;;;;;4.60;3.40;;;;;;;13.01;73.63;98238.32;234301;215;150429;-62
2023/11/01 00:51:33;;;;;;;5.40;3.40;;;;;;;13.00;73.66;98241.09;234433;215;139289;-62
2023/11/01 00:56:36;;;;;;;5.10;2.80;;;;;;;12.97;73.61;98246.13;234268;215;137772;-61
2023/11/01 01:01:39;;;;;;;8.60;3.00;;;;;;;12.95;73.61;98247.73;234139;215;150162;-61
2023/11/01 01:06:42;;;;;;;6.50;3.40;;;;;;;12.95;73.58;98246.48;233386;215;138650;-61
2023/11/01 01:11:45;;;;;;;7.40;3.10;;;;;;;12.99;73.59;98251.65;233675;215;137503;-61
2023/11/01 01:16:49;;;;;;;4.40;3.00;;;;;;;12.99;73.46;98255.36;234275;215;149830;-62
2023/11/01 01:21:53;;;;;;;4.30;3.40;;;;;;;12.95;73.43;98260.39;233637;215;139661;-62
2023/11/01 01:27:00;;;;;;;7.40;3.60;;;;;;;12.90;73.40;98261.15;233446;215;138224;-62
2023/11/01 01:32:04;;;;;;;3.90;3.00;;;;;;;12.85;73.47;98263.21;234073;215;149099;-61
2023/11/01 01:37:07;;;;;;;3.70;2.70;;;;;;;12.81;73.55;98268.36;234180;215;139252;-61
2023/11/01 01:42:10;;;;;;;4.90;3.40;;;;;;;12.80;73.67;98270.53;233903;215;138307;-61
2023/11/01 01:47:13;;;;;;;4.70;3.30;;;;;;;12.87;73.63;98271.92;234399;215;149991;-60
2023/11/01 01:52:17;;;;;;;6.70;3.40;;;;;;;12.93;73.37;98269.97;234314;215;140063;-59
2023/11/01 01:57:24;;;;;;;5.90;3.70;;;;;;;12.93;73.18;98268.03;234130;215;137245;-61
2023/11/01 02:02:27;;;;;;;5.10;3.30;;;;;;;12.86;73.20;98273.63;233849;215;150123;-58
2023/11/01 02:07:31;;;;;;;5.50;3.40;;;;;;;12.85;73.26;98275.64;232742;215;139716;-60
2023/11/01 02:12:34;;;;;;;5.50;3.10;;;;;;;12.84;73.32;98281.98;234432;215;138363;-59
2023/11/01 02:17:37;;;;;;;5.70;3.30;;;;;;;12.85;73.32;98284.55;233854;215;149898;-59
2023/11/01 02:22:42;;;;;;;4.50;3.20;;;;;;;12.88;73.25;98292.13;234322;215;139716;-60
2023/11/01 02:27:46;;;;;;;8.00;3.00;;;;;;;12.91;73.12;98294.56;233973;215;139863;-59
2023/11/01 02:32:49;;;;;;;6.20;3.00;;;;;;;12.93;73.00;98296.88;233005;215;150599;-59
2023/11/01 02:37:53;;;;;;;5.90;3.00;;;;;;;12.88;72.99;98299.61;234317;215;139564;-58
2023/11/01 02:42:56;;;;;;;4.30;3.10;;;;;;;12.83;72.90;98302.50;234328;215;137562;-60
2023/11/01 02:47:59;;;;;;;6.40;3.20;;;;;;;12.80;73.04;98304.52;234416;215;149455;-60
2023/11/01 02:53:03;;;;;;;5.60;3.20;;;;;;;12.83;72.89;98303.80;234365;215;139793;-59
2023/11/01 02:58:06;;;;;;;4.90;3.40;;;;;;;12.82;72.88;98300.83;233649;215;137298;-60
2023/11/01 03:03:09;;;;;;;3.20;2.80;;;;;;;12.84;72.92;98299.80;234217;215;149430;-60
2023/11/01 03:08:13;;;;;;;3.70;3.20;;;;;;;12.82;72.81;98301.23;233880;215;140133;-60
2023/11/01 03:13:16;;;;;;;6.50;2.90;;;;;;;12.78;72.79;98309.32;234278;215;137122;-61
2023/11/01 03:18:19;;;;;;;3.40;2.60;;;;;;;12.77;72.83;98318.48;234342;215;149738;-62
2023/11/01 03:23:23;;;;;;;4.50;3.20;;;;;;;12.78;72.97;98316.27;234259;215;138714;-62
2023/11/01 03:28:26;;;;;;;4.40;3.00;;;;;;;12.82;72.79;98321.32;234314;215;137074;-62
2023/11/01 03:33:29;;;;;;;5.90;3.10;;;;;;;12.81;72.67;98325.49;234487;215;149469;-62
2023/11/01 03:38:33;;;;;;;3.70;2.90;;;;;;;12.79;72.74;98332.02;234397;215;138891;-62
2023/11/01 03:43:36;;;;;;;5.80;2.70;;;;;;;12.72;72.71;98339.92;234325;216;138103;-62
2023/11/01 03:48:40;;;;;;;4.70;2.90;;;;;;;12.71;72.90;98345.14;234361;215;150020;-61
2023/11/01 03:53:43;;;;;;;4.10;2.60;;;;;;;12.73;72.73;98346.75;234241;216;139391;-61
2023/11/01 03:58:47;;;;;;;4.60;2.70;;;;;;;12.75;72.62;98344.48;234388;215;138464;-60
2023/11/01 04:03:50;;;;;;;5.30;3.20;;;;;;;12.75;72.43;98341.25;233253;215;149516;-61
2023/11/01 04:08:53;;;;;;;5.70;2.70;;;;;;;12.75;72.33;98347.54;234394;215;139695;-61
2023/11/01 04:13:57;;;;;;;5.70;3.00;;;;;;;12.69;72.37;98354.16;234397;215;137619;-61
2023/11/01 04:19:01;;;;;;;2.80;2.40;;;;;;;12.63;72.51;98356.15;234409;215;151463;-62
2023/11/01 04:24:04;;;;;;;4.70;2.50;;;;;;;12.64;72.53;98361.73;234372;215;138979;-61
2023/11/01 04:29:08;;;;;;;3.70;2.70;;;;;;;12.72;72.26;98364.43;233907;215;137812;-60
2023/11/01 04:34:12;;;;;;;8.20;2.70;;;;;;;12.74;72.14;98369.34;234098;215;150747;-60
2023/11/01 04:39:15;;;;;;;3.90;2.60;;;;;;;12.67;72.20;98372.73;234431;215;138993;-61
2023/11/01 04:44:18;;;;;;;3.10;2.20;;;;;;;12.67;72.12;98374.66;234349;215;136991;-62
2023/11/01 04:49:21;;;;;;;7.20;2.60;;;;;;;12.64;71.97;98381.66;234438;215;149609;-61
2023/11/01 04:54:24;;;;;;;5.20;2.40;;;;;;;12.67;72.14;98385.00;234110;215;138770;-61
2023/11/01 04:59:29;;;;;;;5.70;2.70;;;;;;;12.76;71.96;98389.93;234109;215;138806;-62
2023/11/01 05:04:32;;;;;;;3.30;2.50;;;;;;;12.82;71.74;98391.43;234399;215;149871;-62
2023/11/01 05:09:35;;;;;;;5.10;2.70;;;;;;;12.87;71.41;98394.05;234399;215;139271;-60
2023/11/01 05:14:38;;;;;;;6.20;2.50;;;;;;;12.85;71.40;98395.50;234368;215;136891;-60
2023/11/01 05:19:41;;;;;;;8.10;3.10;;;;;;;12.81;71.31;98395.61;234410;215;150248;-60
2023/11/01 05:24:49;;;;;;;4.40;2.40;;;;;;;12.76;71.24;98396.55;234155;215;140557;-59
2023/11/01 05:29:52;;;;;;;4.40;2.40;;;;;;;12.73;71.27;98399.44;234467;215;138111;-59
2023/11/01 05:34:55;;;;;;;4.00;2.30;;;;;;;12.72;71.33;98407.39;234262;215;149452;-58
2023/11/01 05:39:58;;;;;;;3.90;2.80;;;;;;;12.75;71.10;98420.28;234351;215;138922;-57
2023/11/01 05:45:02;;;;;;;4.40;2.60;;;;;;;12.79;70.95;98424.55;233823;215;137512;-60
2023/11/01 05:50:07;;;;;;;5.80;2.90;;;;;;;12.80;70.84;98435.76;233957;215;150071;-60
2023/11/01 05:55:11;;;;;;;4.00;3.00;;;;;;;12.76;70.76;98447.58;234351;215;139080;-59
2023/11/01 06:00:25;;;;;;;5.00;2.50;;;;;;;12.73;70.74;98448.21;234329;215;138269;-60
2023/11/01 06:05:29;;;;;;;4.90;2.80;;;;;;;12.75;70.69;98455.17;233728;215;149152;-60
2023/11/01 06:10:32;;;;;;;4.20;2.50;;;;;;;12.78;70.60;98462.75;233932;215;140770;-59
2023/11/01 06:15:36;;;;;;;4.50;2.40;;;;;;;12.81;70.54;98466.43;234556;215;138813;-60
2023/11/01 06:20:39;;;;;;;4.20;2.50;;;;;;;12.94;70.32;98471.98;234411;215;149461;-59
2023/11/01 06:25:42;;;;;;;3.70;2.70;;;;;;;13.01;69.94;98477.81;234383;215;139548;-58
2023/11/01 06:30:46;;;;;;;89.20;77.50;;;;;;;13.02;69.95;98484.67;234225;215;137444;-62
2023/11/01 06:35:49;;;;;;;7.10;5.40;;;;;;;13.09;69.81;98489.17;233854;215;150427;-63
2023/11/01 06:40:52;;;;;;;277.50;152.80;;;;;;;13.09;69.45;98496.25;233825;215;139765;-63
2023/11/01 06:45:56;;;;;;;19.50;15.00;;;;;;;13.03;69.34;98489.95;234445;215;137783;-62
2023/11/01 06:50:59;;;;;;;4.90;2.70;;;;;;;12.97;69.13;98495.23;234406;215;150094;-62
2023/11/01 06:56:03;;;;;;;3.50;2.40;;;;;;;13.01;69.12;98494.37;234363;215;139216;-62
2023/11/01 07:01:07;;;;;;;4.20;2.40;;;;;;;13.07;68.90;98498.71;234287;215;140219;-58
2023/11/01 07:06:10;;;;;;;3.70;2.30;;;;;;;13.11;68.51;98503.35;234253;215;149074;-61
2023/11/01 07:11:13;;;;;;;4.20;2.60;;;;;;;13.13;68.30;98504.27;234312;215;138793;-60
2023/11/01 07:16:16;;;;;;;3.10;2.40;;;;;;;13.16;68.01;98505.11;234325;215;139092;-61
2023/11/01 07:21:20;;;;;;;4.10;2.60;;;;;;;13.19;67.58;98506.85;234396;215;149529;-62
2023/11/01 07:26:23;;;;;;;4.00;2.50;;;;;;;13.15;67.43;98506.45;234225;215;139529;-61
2023/11/01 07:31:26;;;;;;;193.70;163.90;;;;;;;13.21;68.17;98503.48;234266;215;138997;-61
2023/11/01 07:36:30;;;;;;;6.20;3.40;;;;;;;13.26;67.67;98499.68;234108;215;151617;-60
2023/11/01 07:41:34;;;;;;;7.00;2.60;;;;;;;13.28;67.28;98509.20;234139;215;139484;-59
2023/11/01 07:46:37;;;;;;;5.90;2.50;;;;;;;13.22;67.06;98514.73;234218;216;139557;-59
2023/11/01 07:51:41;;;;;;;6.90;2.80;;;;;;;13.29;67.17;98513.91;234407;215;149095;-60
2023/11/01 07:56:44;;;;;;;3.80;2.20;;;;;;;13.38;67.03;98514.59;233671;214;141535;-60
2023/11/01 08:01:47;;;;;;;5.60;2.30;;;;;;;13.49;66.62;98516.02;234312;215;137831;-59
2023/11/01 08:06:50;;;;;;;4.70;2.20;;;;;;;13.56;66.21;98519.66;234253;215;149446;-60
2023/11/01 08:11:53;;;;;;;125.60;99.00;;;;;;;13.63;65.75;98518.42;234221;215;140836;-58
2023/11/01 08:16:57;;;;;;;5.20;3.40;;;;;;;13.69;64.98;98522.20;234354;215;138090;-60
2023/11/01 08:22:00;;;;;;;9.20;2.60;;;;;;;13.68;64.59;98526.91;234319;215;149612;-61
2023/11/01 08:27:05;;;;;;;6.40;2.30;;;;;;;13.66;64.03;98533.09;234503;215;140184;-60
2023/11/01 08:32:12;;;;;;;6.30;2.10;;;;;;;13.70;64.14;98535.77;234308;215;138439;-61
2023/11/01 08:37:15;;;;;;;3.10;1.60;;;;;;;13.79;63.97;98543.25;234227;215;149249;-61
2023/11/01 08:42:18;;;;;;;3.10;1.70;;;;;;;13.84;63.03;98545.00;234340;215;140522;-62
2023/11/01 08:47:42;;;;;;;4.60;1.90;;;;;;;13.86;62.27;98555.36;234432;215;138931;-60
2023/11/01 08:52:46;;;;;;;3.20;2.10;;;;;;;13.96;62.22;98552.35;234091;215;149698;-62
2023/11/01 08:57:49;;;;;;;6.90;2.00;;;;;;;14.02;61.25;98559.20;234461;215;138946;-60
2023/11/01 09:02:53;;;;;;;7.10;2.10;;;;;;;14.07;61.31;98555.69;233690;215;138586;-61
2023/11/01 09:07:56;;;;;;;4.60;1.80;;;;;;;14.19;61.31;98552.55;234330;215;149157;-63
2023/11/01 09:12:59;;;;;;;3.00;1.70;;;;;;;14.25;60.85;98553.15;234194;215;139643;-63
2023/11/01 09:18:04;;;;;;;4.20;1.80;;;;;;;14.28;60.61;98549.52;233454;215;138099;-62
2023/11/01 09:23:07;;;;;;;5.40;1.90;;;;;;;14.36;60.35;98550.39;234306;215;149829;-62
2023/11/01 09:28:10;;;;;;;3.80;1.80;;;;;;;14.38;59.44;98555.02;234229;215;140038;-50
2023/11/01 09:33:14;;;;;;;4.90;2.00;;;;;;;14.56;61.57;98557.83;234471;215;137109;-62
2023/11/01 09:38:17;;;;;;;4.90;2.00;;;;;;;14.68;59.54;98551.63;233750;215;149191;-62
2023/11/01 09:43:21;;;;;;;3.70;1.90;;;;;;;14.74;58.92;98543.42;234255;215;138965;-62
2023/11/01 09:48:25;;;;;;;2.80;1.60;;;;;;;14.79;58.04;98542.98;234265;215;140116;-59
2023/11/01 09:53:28;;;;;;;5.20;1.60;;;;;;;14.87;57.92;98540.11;234355;215;150518;-60
2023/11/01 09:58:32;;;;;;;3.80;1.60;;;;;;;15.03;58.13;98534.59;234199;215;139883;-59
2023/11/01 10:03:35;;;;;;;3.50;1.60;;;;;;;15.10;56.77;98531.86;234184;215;136818;-59
2023/11/01 10:08:38;;;;;;;3.90;1.50;;;;;;;15.16;56.98;98530.10;234279;215;149411;-60
2023/11/01 10:13:42;;;;;;;4.10;1.60;;;;;;;15.27;56.43;98530.70;233686;215;139121;-60
2023/11/01 10:18:47;;;;;;;2.60;1.40;;;;;;;15.30;55.88;98527.88;233596;215;137923;-58
2023/11/01 10:23:51;;;;;;;2.40;1.40;;;;;;;15.37;55.50;98521.14;233334;215;150424;-60
2023/11/01 10:28:54;;;;;;;6.00;2.40;;;;;;;15.41;55.40;98510.68;234362;215;139669;-59
2023/11/01 10:33:58;;;;;;;16.80;11.40;;;;;;;15.57;55.70;98502.94;234085;213;137434;-60
2023/11/01 10:39:02;;;;;;;11.10;8.40;;;;;;;15.75;54.54;98507.42;234205;215;151156;-60
2023/11/01 10:44:07;;;;;;;5.90;1.30;;;;;;;15.84;54.09;98506.76;234293;215;139753;-59
2023/11/01 10:49:11;;;;;;;2.50;1.20;;;;;;;15.85;53.81;98506.11;234396;215;139149;-60
2023/11/01 10:54:15;;;;;;;3.00;1.50;;;;;;;15.89;53.23;98509.02;234336;215;148995;-60
2023/11/01 10:59:45;;;;;;;3.30;1.20;;;;;;;15.82;53.11;98505.45;234305;215;139263;-59
2023/11/01 11:05:04;;;;;;;3.70;1.40;;;;;;;15.75;53.84;98496.31;234299;215;138205;-61
2023/11/01 11:10:25;;;;;;;4.30;1.60;;;;;;;15.71;53.78;98498.48;233999;215;150914;-62
2023/11/01 11:15:50;;;;;;;173.80;121.50;;;;;;;15.81;54.31;98497.58;234293;215;139459;-63
2023/11/01 11:20:58;;;;;;;4.40;2.40;;;;;;;15.94;54.55;98492.80;233884;215;138053;-60
2023/11/01 11:26:03;;;;;;;4.00;1.80;;;;;;;16.10;54.06;98490.81;234072;215;149491;-62
2023/11/01 11:31:15;;;;;;;3.30;1.30;;;;;;;16.25;52.83;98492.77;233711;215;138759;-62
2023/11/01 11:36:23;;;;;;;2.40;1.10;;;;;;;16.27;52.55;98488.20;234297;215;140709;-61
2023/11/01 11:41:27;;;;;;;4.00;2.20;;;;;;;16.18;52.52;98488.54;233556;215;149312;-62
2023/11/01 11:46:40;;;;;;;3.70;1.40;;;;;;;16.11;52.30;98493.71;234266;215;139557;-62
2023/11/01 11:51:49;;;;;;;382.30;254.70;;;;;;;16.09;53.03;98492.63;234440;215;137261;-62
2023/11/01 11:56:55;;;;;;;7.60;4.30;;;;;;;16.23;53.53;98490.02;234288;215;150734;-62
2023/11/01 12:02:19;;;;;;;3.00;1.80;;;;;;;16.29;52.78;98488.26;234305;215;139757;-62
2023/11/01 12:07:23;;;;;;;2.90;1.20;;;;;;;16.34;52.84;98481.52;233958;215;139543;-61
2023/11/01 12:12:26;;;;;;;2.90;1.20;;;;;;;16.54;52.63;98470.27;233830;215;149737;-59
2023/11/01 12:17:30;;;;;;;4.80;1.20;;;;;;;16.75;51.91;98468.66;234156;215;140130;-61
2023/11/01 12:22:36;;;;;;;1.70;1.00;;;;;;;16.79;50.83;98468.30;234151;213;138133;-59
2023/11/01 12:27:40;;;;;;;2.90;1.40;;;;;;;16.63;50.53;98471.55;234444;215;149529;-59
2023/11/01 12:32:43;;;;;;;1.90;1.10;;;;;;;16.47;50.80;98466.30;234230;215;140864;-59
2023/11/01 12:37:47;;;;;;;1.20;0.90;;;;;;;16.38;51.09;98466.14;234306;215;139183;-60
2023/11/01 12:43:08;;;;;;;96.70;73.40;;;;;;;16.37;51.40;98457.94;233238;215;150754;-58
2023/11/01 12:48:12;;;;;;;6.90;2.10;;;;;;;16.47;51.55;98454.85;234270;215;140812;-59
2023/11/01 12:53:16;;;;;;;222.60;157.00;;;;;;;16.50;51.54;98451.54;234301;215;141599;-58
2023/11/01 12:58:19;;;;;;;8.20;4.80;;;;;;;16.48;51.44;98452.46;234256;215;150101;-58
2023/11/01 13:03:23;;;;;;;2.80;1.20;;;;;;;16.37;51.62;98449.50;233978;215;138510;-59
2023/11/01 13:08:28;;;;;;;4.00;1.30;;;;;;;16.30;51.78;98449.51;233791;215;138522;-58
2023/11/01 13:13:31;;;;;;;3.30;1.20;;;;;;;16.27;51.99;98450.98;234182;215;149110;-59
2023/11/01 13:18:34;;;;;;;2.20;1.20;;;;;;;16.23;52.18;98455.33;234158;215;140613;-58
2023/11/01 13:23:38;;;;;;;3.90;0.90;;;;;;;16.19;52.21;98458.03;234192;215;138116;-59
2023/11/01 13:28:41;;;;;;;1.60;1.10;;;;;;;16.21;52.53;98454.84;234126;215;151070;-58
2023/11/01 13:33:45;;;;;;;1.40;1.00;;;;;;;16.20;52.59;98456.38;234301;215;138924;-59
2023/11/01 13:38:48;;;;;;;3.80;1.30;;;;;;;16.19;52.41;98457.87;234181;215;139436;-60
2023/11/01 13:43:52;;;;;;;6.80;2.20;;;;;;;16.24;52.79;98457.71;234227;216;150814;-59
2023/11/01 13:48:55;;;;;;;4.60;1.20;;;;;;;16.25;52.75;98459.61;234242;215;138844;-58
2023/11/01 13:53:58;;;;;;;1.40;1.00;;;;;;;16.22;52.97;98459.05;234296;215;138723;-58
2023/11/01 13:59:02;;;;;;;2.30;1.20;;;;;;;16.15;53.21;98455.90;234340;215;149438;-58
2023/11/01 14:04:06;;;;;;;183.60;133.80;;;;;;;16.14;53.73;98446.71;234272;215;138894;-59
2023/11/01 14:09:12;;;;;;;8.20;6.20;;;;;;;16.24;54.13;98439.17;234192;215;137797;-57
2023/11/01 14:14:15;;;;;;;2.90;1.50;;;;;;;16.20;53.48;98438.59;234140;215;152207;-58
2023/11/01 14:19:18;;;;;;;4.00;1.20;;;;;;;16.17;53.50;98440.13;234241;215;139234;-56
2023/11/01 14:24:22;;;;;;;3.60;1.10;;;;;;;16.18;53.47;98440.64;234218;216;139156;-55
2023/11/01 14:29:25;;;;;;;1.60;1.00;;;;;;;16.18;53.19;98435.27;234255;215;149413;-56
2023/11/01 14:34:29;;;;;;;2.70;1.10;;;;;;;16.17;52.61;98434.81;234104;216;138644;-57
2023/11/01 14:39:33;;;;;;;3.10;1.20;;;;;;;16.14;52.77;98437.41;234332;215;136937;-55
2023/11/01 14:44:36;;;;;;;2.80;1.20;;;;;;;16.12;52.58;98434.60;234203;215;150031;-56
2023/11/01 14:49:39;;;;;;;3.50;1.30;;;;;;;16.11;52.15;98430.04;234209;215;139890;-56
2023/11/01 14:54:42;;;;;;;2.20;1.30;;;;;;;16.11;51.74;98428.39;234225;215;139173;-56
2023/11/01 14:59:46;;;;;;;4.50;1.60;;;;;;;16.10;51.63;98422.71;234176;215;149304;-57
2023/11/01 15:04:51;;;;;;;1.70;1.10;;;;;;;16.03;51.62;98422.11;234120;215;139233;-55
2023/11/01 15:09:55;;;;;;;;;;;;;;;16.00;51.90;98426.00;234321;215;136861;-58
2023/11/01 15:14:58;;;;;;;3.60;1.80;;;;;;;16.00;51.90;98426.17;234254;216;149463;-56
2023/11/01 15:20:01;;;;;;;2.40;1.60;;;;;;;15.91;52.10;98420.29;234178;215;139089;-57
2023/11/01 15:25:04;;;;;;;3.00;1.50;;;;;;;15.73;53.87;98416.53;234131;215;138049;-57
2023/11/01 15:30:09;;;;;;;1.80;1.20;;;;;;;15.52;54.95;98421.52;234236;215;149935;-57
2023/11/01 15:35:12;;;;;;;2.70;1.50;;;;;;;15.30;55.50;98417.59;234230;215;138791;-55
2023/11/01 15:40:15;;;;;;;4.60;1.70;;;;;;;15.04;56.16;98409.64;234265;215;138774;-57
2023/11/01 15:45:18;;;;;;;5.50;2.20;;;;;;;14.84;56.84;98413.23;234364;215;149233;-57
2023/11/01 15:50:22;;;;;;;6.40;2.00;;;;;;;14.70;57.50;98418.05;234207;215;141042;-57
2023/11/01 15:55:25;;;;;;;6.60;2.00;;;;;;;14.55;57.81;98417.40;234156;215;138078;-58
2023/11/01 16:00:29;;;;;;;6.00;1.90;;;;;;;14.38;58.54;98413.93;234164;215;149308;-57
2023/11/01 16:05:32;;;;;;;6.80;2.30;;;;;;;14.21;59.25;98414.13;234176;215;139562;-56
2023/11/01 16:10:36;;;;;;;5.60;2.30;;;;;;;14.02;60.02;98413.97;234267;215;138537;-58
2023/11/01 16:15:39;;;;;;;8.10;2.30;;;;;;;13.84;60.64;98409.48;234293;215;149396;-58
2023/11/01 16:20:42;;;;;;;6.50;2.00;;;;;;;13.75;61.23;98409.36;234108;215;139151;-57
2023/11/01 16:25:46;;;;;;;7.10;4.20;;;;;;;13.65;61.70;98411.42;234224;216;137587;-57
2023/11/01 16:30:49;;;;;;;13.20;2.70;;;;;;;13.57;62.22;98411.77;234264;215;151619;-57
2023/11/01 16:35:52;;;;;;;7.20;2.60;;;;;;;13.46;62.67;98415.56;234130;215;138772;-57
2023/11/01 16:40:56;;;;;;;7.40;2.60;;;;;;;13.31;62.91;98421.13;234238;215;138971;-57
2023/11/01 16:45:59;;;;;;;8.40;2.70;;;;;;;13.20;63.30;98418.19;234280;215;149179;-58
2023/11/01 16:51:03;;;;;;;9.10;2.70;;;;;;;13.11;63.59;98417.23;234359;215;141258;-57
2023/11/01 16:56:06;;;;;;;12.50;2.80;;;;;;;13.03;63.95;98418.35;234233;215;155645;-56
2023/11/01 17:01:10;;;;;;;11.20;3.40;;;;;;;12.98;64.40;98417.02;234301;215;149192;-58
2023/11/01 17:06:13;;;;;;;188.10;143.90;;;;;;;12.96;64.86;98419.87;234134;216;140000;-50
2023/11/01 17:11:17;;;;;;;28.00;15.00;;;;;;;13.21;66.24;98422.60;234260;215;142967;-56
2023/11/01 17:16:21;;;;;;;12.60;4.30;;;;;;;13.28;64.37;98415.80;234201;215;149375;-57
2023/11/01 17:21:25;;;;;;;10.80;5.10;;;;;;;13.13;64.39;98415.80;234343;215;138978;-57
2023/11/01 17:26:28;;;;;;;14.70;4.70;;;;;;;13.02;64.68;98412.73;234187;215;137118;-57
2023/11/01 17:31:41;;;;;;;13.30;5.20;;;;;;;12.92;64.82;98408.08;234222;215;149359;-57
2023/11/01 17:36:44;;;;;;;18.60;5.70;;;;;;;12.79;65.15;98403.55;234218;215;139343;-57
2023/11/01 17:41:48;;;;;;;12.80;5.40;;;;;;;12.67;65.29;98409.53;234138;215;137957;-54
2023/11/01 17:46:56;;;;;;;11.10;6.20;;;;;;;12.56;65.61;98408.31;234189;215;151146;-58
2023/11/01 17:52:03;;;;;;;17.20;5.70;;;;;;;12.49;65.88;98405.16;234454;215;138725;-57
2023/11/01 17:57:07;;;;;;;13.40;6.00;;;;;;;12.42;66.16;98398.42;234319;215;137512;-57
2023/11/01 18:02:29;;;;;;;16.20;6.40;;;;;;;12.32;66.41;98392.83;234292;215;149348;-57
2023/11/01 18:07:33;;;;;;;18.50;5.90;;;;;;;12.23;66.74;98388.14;234158;215;139405;-57
2023/11/01 18:12:36;;;;;;;14.30;5.80;;;;;;;12.21;66.80;98386.19;234257;215;138409;-58
2023/11/01 18:17:39;;;;;;;14.30;6.00;;;;;;;12.20;66.93;98384.70;234239;215;149629;-58
2023/11/01 18:22:43;;;;;;;68.30;47.10;;;;;;;12.16;67.33;98382.70;234143;215;139379;-58
2023/11/01 18:27:46;;;;;;;17.80;7.70;;;;;;;12.15;67.07;98381.67;234361;215;139536;-59
2023/11/01 18:32:49;;;;;;;18.20;7.70;;;;;;;12.09;67.05;98384.84;234243;215;149786;-59
2023/11/01 18:37:53;;;;;;;16.90;7.80;;;;;;;12.01;67.12;98382.60;234129;215;139428;-62
2023/11/01 18:42:58;;;;;;;16.90;8.10;;;;;;;11.91;67.06;98378.94;234287;215;137700;-58
2023/11/01 18:48:01;;;;;;;207.10;164.60;;;;;;;11.85;67.78;98377.67;234191;215;149681;-60
2023/11/01 18:53:07;;;;;;;22.30;10.10;;;;;;;11.90;67.64;98378.30;234250;216;139237;-56
2023/11/01 18:58:11;;;;;;;22.50;9.20;;;;;;;11.81;67.35;98379.71;233820;216;138893;-55
2023/11/01 19:03:18;;;;;;;66.70;46.60;;;;;;;11.68;67.55;98380.35;234428;216;149283;-58
2023/11/01 19:08:23;;;;;;;22.00;9.60;;;;;;;11.63;67.83;98375.77;233477;215;138972;-55
2023/11/01 19:13:28;;;;;;;21.70;10.30;;;;;;;11.56;67.66;98377.02;234114;215;137718;-53
2023/11/01 19:18:31;;;;;;;33.90;11.50;;;;;;;11.51;67.52;98372.98;234201;215;149238;-54
2023/11/01 19:23:35;;;;;;;25.70;11.10;;;;;;;11.47;67.54;98375.25;234152;215;139284;-56
2023/11/01 19:28:38;;;;;;;24.20;11.60;;;;;;;11.40;67.53;98367.75;234306;215;137152;-56
2023/11/01 19:33:44;;;;;;;27.00;11.80;;;;;;;11.31;67.63;98368.98;233989;216;149212;-54
2023/11/01 19:38:48;;;;;;;24.50;11.80;;;;;;;11.21;67.67;98367.59;233591;215;139758;-55
2023/11/01 19:43:58;;;;;;;22.20;11.20;;;;;;;11.13;67.88;98367.85;234227;215;138361;-54
2023/11/01 19:49:03;;;;;;;21.90;11.80;;;;;;;11.02;67.94;98367.25;233679;215;150513;-56
2023/11/01 19:54:07;;;;;;;23.50;11.50;;;;;;;10.93;68.07;98364.73;234252;215;139609;-55
2023/11/01 19:59:11;;;;;;;23.10;12.00;;;;;;;10.89;68.30;98357.91;234135;216;138152;-54
2023/11/01 20:04:14;;;;;;;20.70;11.20;;;;;;;10.82;68.38;98351.70;234084;215;149386;-56
2023/11/01 20:09:18;;;;;;;19.70;10.20;;;;;;;10.73;68.61;98351.11;234363;215;139825;-57
2023/11/01 20:14:22;;;;;;;19.20;10.40;;;;;;;10.72;68.70;98347.34;234271;215;138601;-57
2023/11/01 20:19:25;;;;;;;22.10;11.60;;;;;;;10.74;68.61;98343.27;234244;215;150430;-57
2023/11/01 20:24:29;;;;;;;19.20;10.50;;;;;;;10.78;68.76;98337.09;234159;215;138838;-57
2023/11/01 20:29:33;;;;;;;22.70;11.30;;;;;;;10.75;68.46;98334.85;234074;216;137581;-58
2023/11/01 20:34:36;;;;;;;18.20;11.20;;;;;;;10.69;68.68;98335.83;234318;215;149150;-57
2023/11/01 20:39:45;;;;;;;18.40;10.40;;;;;;;10.65;68.62;98331.98;233887;215;138587;-58
2023/11/01 20:44:49;;;;;;;23.50;11.20;;;;;;;10.58;68.63;98331.86;234274;215;138336;-56
2023/11/01 20:49:52;;;;;;;17.80;11.10;;;;;;;10.50;68.77;98332.07;234279;216;149943;-55
2023/11/01 20:55:01;;;;;;;18.40;11.20;;;;;;;10.46;68.97;98323.83;234213;215;139483;-57
2023/11/01 21:00:05;;;;;;;19.00;11.80;;;;;;;10.41;69.25;98318.89;234374;215;151590;-50
2023/11/01 21:05:09;;;;;;;19.60;10.30;;;;;;;10.38;69.07;98309.88;234392;215;149334;-54
2023/11/01 21:10:13;;;;;;;17.10;10.40;;;;;;;10.37;69.14;98305.55;234282;215;139827;-54
2023/11/01 21:15:16;;;;;;;18.70;11.40;;;;;;;10.40;69.03;98301.72;234415;215;138233;-55
2023/11/01 21:20:21;;;;;;;23.60;11.20;;;;;;;10.41;68.86;98294.58;234295;216;149424;-51
2023/11/01 21:25:27;;;;;;;17.90;10.60;;;;;;;10.38;68.70;98290.92;234230;215;140105;-57
2023/11/01 21:30:30;;;;;;;19.10;11.50;;;;;;;10.34;68.67;98290.49;233582;215;138782;-54
2023/11/01 21:35:33;;;;;;;25.30;13.30;;;;;;;10.28;68.73;98292.31;233748;215;149832;-52
2023/11/01 21:40:39;;;;;;;;;;;;;;;10.23;68.79;98295.01;234238;215;138731;-56
2023/11/01 21:45:52;;;;;;;26.20;13.20;;;;;;;10.16;68.79;98294.40;234515;215;133051;-52
2023/11/01 21:50:58;;;;;;;25.90;13.00;;;;;;;10.08;69.01;98293.96;234169;215;149629;-53
2023/11/01 21:56:01;;;;;;;21.30;13.20;;;;;;;10.05;69.10;98290.61;234116;215;139456;-56
2023/11/01 22:01:06;;;;;;;21.60;13.10;;;;;;;10.02;69.14;98289.43;233507;215;138163;-54
2023/11/01 22:06:22;;;;;;;20.90;12.40;;;;;;;9.98;69.10;98286.02;233973;215;150635;-52
2023/11/01 22:11:37;;;;;;;16.90;11.20;;;;;;;9.95;69.25;98280.85;234280;214;138912;-53
2023/11/01 22:16:42;;;;;;;18.20;11.80;;;;;;;10.03;69.56;98271.23;234282;215;139965;-53
2023/11/01 22:21:45;;;;;;;19.20;11.40;;;;;;;10.12;69.68;98269.33;234032;215;150006;-55
2023/11/01 22:26:52;;;;;;;17.10;10.40;;;;;;;10.16;69.61;98267.12;233971;215;141230;-55
2023/11/01 22:31:55;;;;;;;18.70;12.50;;;;;;;10.16;69.70;98266.91;234204;215;138863;-56
2023/11/01 22:37:01;;;;;;;16.60;10.90;;;;;;;10.15;69.62;98265.23;234164;215;149495;-54
2023/11/01 22:42:05;;;;;;;18.20;11.30;;;;;;;10.14;69.59;98262.84;234093;215;139022;-57
2023/11/01 22:47:10;;;;;;;14.10;9.70;;;;;;;10.12;69.52;98258.20;233279;215;137605;-55
2023/11/01 22:52:13;;;;;;;16.70;10.40;;;;;;;10.10;69.48;98247.55;234267;215;151111;-55
2023/11/01 22:57:17;;;;;;;17.60;10.50;;;;;;;10.09;69.40;98245.48;234376;214;138769;-56
2023/11/01 23:02:20;;;;;;;14.90;9.90;;;;;;;10.09;69.37;98240.17;234460;215;138857;-49
2023/11/01 23:07:25;;;;;;;;;;;;;;;10.09;69.34;98235.38;234224;215;150257;-50
2023/11/01 23:12:28;;;;;;;16.50;9.10;;;;;;;10.13;69.33;98228.01;234290;215;139596;-53
2023/11/01 23:17:32;;;;;;;15.50;8.60;;;;;;;10.15;69.14;98225.87;234378;215;138204;-55
2023/11/01 23:22:35;;;;;;;13.00;9.10;;;;;;;10.16;69.06;98220.11;234313;215;149802;-51
2023/11/01 23:27:38;;;;;;;18.80;10.00;;;;;;;10.17;68.81;98217.96;234332;215;138778;-56